Time;durP1;ratioP1;P1;durP2;ratioP2;P2;SDS_P1;SDS_P2;PMS_P1;PMS_P2;Temp;Humidity;BMP_temperature;BMP_pressure;BME280_temperature;BME280_humidity;BME280_pressure;Samples;Min_cycle;Max_cycle;Signal;HPM_P1;HPM_P2
2022/05/07 00:01:12;;;;;;;8.87;8.17;;;13.40;99.90;;;;;;5013302;28;20940;-82
2022/05/07 00:03:38;;;;;;;9.13;8.43;;;13.30;99.90;;;;;;5012226;28;20389;-83
2022/05/07 00:06:04;;;;;;;9.50;8.70;;;13.20;99.90;;;;;;5013438;28;20392;-83
2022/05/07 00:08:30;;;;;;;9.88;9.05;;;13.10;99.90;;;;;;5013202;28;20385;-83
2022/05/07 00:10:55;;;;;;;9.10;8.50;;;13.10;99.90;;;;;;5013236;28;20862;-83
2022/05/07 00:13:21;;;;;;;9.60;8.80;;;13.10;99.90;;;;;;5013129;28;20897;-83
2022/05/07 00:18:30;;;;;;;9.30;8.65;;;13.10;99.90;;;;;;5013105;28;20442;-83
2022/05/07 00:20:56;;;;;;;8.75;8.00;;;13.10;99.90;;;;;;5012911;28;20496;-83
2022/05/07 00:23:22;;;;;;;8.88;8.18;;;13.40;99.90;;;;;;5013004;28;20866;-83
2022/05/07 00:25:47;;;;;;;9.10;8.50;;;13.30;99.90;;;;;;5012816;28;20782;-82
2022/05/07 00:28:13;;;;;;;8.93;8.32;;;13.30;99.90;;;;;;5013000;28;20385;-83
2022/05/07 00:30:39;;;;;;;10.15;9.27;;;13.30;99.90;;;;;;5012398;28;20870;-82
2022/05/07 00:33:04;;;;;;;9.20;8.50;;;13.20;99.90;;;;;;5012803;28;20384;-83
2022/05/07 00:35:30;;;;;;;8.63;7.93;;;13.10;99.90;;;;;;5012552;28;20395;-83
2022/05/07 00:37:56;;;;;;;8.48;7.82;;;13.20;99.90;;;;;;5013119;28;20393;-83
2022/05/07 00:40:21;;;;;;;8.00;7.37;;;13.20;99.90;;;;;;5009462;28;20406;-83
2022/05/07 00:42:47;;;;;;;8.10;7.50;;;13.00;99.90;;;;;;5012644;28;20389;-83
2022/05/07 00:45:13;;;;;;;8.23;7.43;;;13.00;99.90;;;;;;5012573;28;20428;-83
2022/05/07 00:47:39;;;;;;;7.60;7.10;;;13.10;99.90;;;;;;5012552;28;20403;-83
2022/05/07 00:52:50;;;;;;;8.13;7.30;;;13.10;99.90;;;;;;5013009;28;20404;-83
2022/05/07 00:55:16;;;;;;;7.63;7.13;;;13.10;99.90;;;;;;5012336;28;20400;-83
2022/05/07 00:57:42;;;;;;;8.20;7.60;;;13.10;99.90;;;;;;5012508;28;20922;-83
2022/05/07 01:00:09;;;;;;;8.23;7.63;;;13.60;99.90;;;;;;5012304;28;20430;-83
2022/05/07 01:02:36;;;;;;;8.05;7.40;;;13.10;99.90;;;;;;5012541;28;20385;-82
2022/05/07 01:05:05;;;;;;;8.10;7.40;;;13.10;99.90;;;;;;5012241;28;20397;-83
2022/05/07 01:07:33;;;;;;;8.98;8.07;;;13.00;99.90;;;;;;5012259;28;20385;-83
2022/05/07 01:10:00;;;;;;;9.18;8.27;;;13.00;99.90;;;;;;5012453;28;20545;-83
2022/05/07 01:12:26;;;;;;;9.25;8.30;;;12.80;99.90;;;;;;5012388;28;20395;-82
2022/05/07 01:14:54;;;;;;;8.20;7.50;;;13.00;99.90;;;;;;5012981;28;20396;-82
2022/05/07 01:17:20;;;;;;;8.88;7.53;;;12.90;99.90;;;;;;5018800;28;20488;-82
2022/05/07 01:19:46;;;;;;;8.47;7.77;;;13.20;99.90;;;;;;5019070;28;20500;-83
2022/05/07 01:22:12;;;;;;;8.50;7.80;;;13.20;99.90;;;;;;5018776;28;20392;-83
2022/05/07 01:24:37;;;;;;;8.38;7.63;;;13.30;99.90;;;;;;5018789;28;20390;-82
2022/05/07 01:27:03;;;;;;;7.88;7.30;;;13.20;99.90;;;;;;5018673;28;20397;-82
2022/05/07 01:29:29;;;;;;;8.43;7.82;;;13.20;99.90;;;;;;5018801;28;20392;-82
2022/05/07 01:31:54;;;;;;;8.25;7.53;;;13.20;99.90;;;;;;5018822;28;20403;-82
2022/05/07 01:34:20;;;;;;;8.90;8.20;;;12.90;99.90;;;;;;5017792;28;20450;-82
2022/05/07 01:36:45;;;;;;;9.23;8.47;;;12.80;99.90;;;;;;5017982;28;20392;-82
2022/05/07 01:39:11;;;;;;;9.30;8.57;;;12.70;99.90;;;;;;5018471;28;20857;-82
2022/05/07 01:41:36;;;;;;;9.30;8.67;;;12.70;99.90;;;;;;5018619;28;20529;-82
2022/05/07 01:44:02;;;;;;;8.70;8.05;;;12.60;99.90;;;;;;5018033;28;20439;-82
2022/05/07 01:49:12;;;;;;;9.43;8.68;;;12.40;99.90;;;;;;5015453;28;20889;-82
2022/05/07 01:51:38;;;;;;;9.77;8.88;;;12.30;99.90;;;;;;5018531;28;20397;-82
2022/05/07 01:54:04;;;;;;;9.30;8.50;;;12.30;99.90;;;;;;5018508;28;20869;-83
2022/05/07 01:56:30;;;;;;;8.75;8.15;;;12.30;99.90;;;;;;5018574;28;20384;-82
2022/05/07 01:58:55;;;;;;;8.95;8.25;;;12.50;99.90;;;;;;5015463;28;20490;-82
2022/05/07 02:01:21;;;;;;;8.60;8.10;;;12.30;99.90;;;;;;5017732;28;20400;-83
2022/05/07 02:03:47;;;;;;;9.02;8.32;;;12.50;99.90;;;;;;5011986;28;20489;-82
2022/05/07 02:06:12;;;;;;;9.07;8.40;;;12.30;99.90;;;;;;5015849;28;20392;-82
2022/05/07 02:08:38;;;;;;;8.80;8.00;;;12.30;99.90;;;;;;5016352;28;21153;-82
2022/05/07 02:11:04;;;;;;;8.68;7.80;;;12.40;99.90;;;;;;5016357;28;20454;-83
2022/05/07 02:13:30;;;;;;;9.30;8.55;;;12.20;99.90;;;;;;5017375;28;20895;-82
2022/05/07 02:15:55;;;;;;;9.15;8.55;;;12.10;99.90;;;;;;5018367;28;20385;-82
2022/05/07 02:18:21;;;;;;;9.13;8.35;;;12.10;99.90;;;;;;5018397;28;20396;-82
2022/05/07 02:20:47;;;;;;;9.00;8.20;;;12.10;99.90;;;;;;5018210;28;20413;-82
2022/05/07 02:23:12;;;;;;;9.70;8.90;;;12.10;99.90;;;;;;5018697;28;20874;-82
2022/05/07 02:25:38;;;;;;;9.43;8.55;;;12.00;99.90;;;;;;5016151;28;20431;-82
2022/05/07 02:28:05;;;;;;;9.07;8.35;;;12.00;99.90;;;;;;5015176;28;20483;-82
2022/05/07 02:30:31;;;;;;;9.30;8.52;;;12.10;99.90;;;;;;5014709;28;20457;-83
2022/05/07 02:32:56;;;;;;;8.63;7.93;;;11.90;99.90;;;;;;5015323;28;20874;-82
2022/05/07 02:35:22;;;;;;;11.70;8.60;;;12.00;99.90;;;;;;5014893;28;20476;-82
2022/05/07 02:37:48;;;;;;;8.85;8.25;;;12.00;99.90;;;;;;5014997;28;20397;-82
2022/05/07 02:40:13;;;;;;;9.40;8.60;;;11.90;99.90;;;;;;5014942;28;20832;-82
2022/05/07 02:42:44;;;;;;;9.32;8.63;;;11.90;99.90;;;;;;5014869;28;20930;-82
2022/05/07 02:45:11;;;;;;;9.60;8.80;;;12.10;99.90;;;;;;5015176;28;20389;-82
2022/05/07 02:47:39;;;;;;;9.23;8.43;;;11.80;99.90;;;;;;5011680;28;20412;-82
2022/05/07 02:50:06;;;;;;;9.93;9.02;;;11.80;99.90;;;;;;5014737;28;20393;-83
2022/05/07 02:52:35;;;;;;;9.80;9.00;;;11.80;99.90;;;;;;5014692;28;20888;-82
2022/05/07 02:55:02;;;;;;;9.93;9.13;;;11.80;99.90;;;;;;5014386;28;20408;-82
2022/05/07 02:57:28;;;;;;;9.52;8.68;;;11.80;99.90;;;;;;5014744;28;20454;-82
2022/05/07 02:59:54;;;;;;;10.32;9.40;;;11.70;99.90;;;;;;5014601;28;20408;-83
2022/05/07 03:02:19;;;;;;;9.95;9.15;;;11.70;99.90;;;;;;5014539;28;20814;-82
2022/05/07 03:04:47;;;;;;;8.95;8.23;;;11.70;99.90;;;;;;5014547;28;20479;-83
2022/05/07 03:07:13;;;;;;;9.32;8.63;;;11.80;99.90;;;;;;5014375;28;20384;-82
2022/05/07 03:09:39;;;;;;;10.07;9.18;;;11.70;99.90;;;;;;5014465;28;20393;-82
2022/05/07 03:12:05;;;;;;;9.55;8.52;;;11.60;99.90;;;;;;5029597;28;20404;-82
2022/05/07 03:14:31;;;;;;;8.65;7.97;;;11.70;99.90;;;;;;5007503;28;20437;-82
2022/05/07 03:16:56;;;;;;;9.13;8.18;;;11.80;99.90;;;;;;5010443;28;20438;-82
2022/05/07 03:19:22;;;;;;;9.50;8.70;;;11.80;99.90;;;;;;5014502;28;20730;-82
2022/05/07 03:21:48;;;;;;;8.95;8.35;;;11.70;99.90;;;;;;5013958;28;20416;-82
2022/05/07 03:24:14;;;;;;;8.70;7.90;;;11.60;99.90;;;;;;5014120;28;20396;-83
2022/05/07 03:26:40;;;;;;;9.05;8.40;;;11.50;99.90;;;;;;5012845;28;20924;-82
2022/05/07 03:29:05;;;;;;;9.48;8.60;;;11.50;99.90;;;;;;5012760;28;20400;-82
2022/05/07 03:31:31;;;;;;;9.40;8.50;;;11.50;99.90;;;;;;5013941;28;20389;-82
2022/05/07 03:33:57;;;;;;;9.13;8.33;;;11.40;99.90;;;;;;5013781;28;20399;-83
2022/05/07 03:36:22;;;;;;;8.73;7.93;;;11.50;99.90;;;;;;5013609;28;20443;-83
2022/05/07 03:38:48;;;;;;;9.10;8.40;;;11.60;99.90;;;;;;5013631;28;20397;-82
2022/05/07 03:41:19;;;;;;;8.95;8.35;;;11.50;99.90;;;;;;5013682;28;20432;-82
2022/05/07 03:43:44;;;;;;;9.90;9.10;;;11.40;99.90;;;;;;5013944;28;20420;-82
2022/05/07 03:46:10;;;;;;;10.10;9.30;;;11.00;99.90;;;;;;5013913;28;20811;-82
2022/05/07 03:48:36;;;;;;;9.67;8.97;;;11.00;99.90;;;;;;5013626;28;20568;-82
2022/05/07 03:51:02;;;;;;;10.30;9.40;;;11.00;99.90;;;;;;5012462;28;20388;-82
2022/05/07 03:53:30;;;;;;;9.73;9.02;;;10.90;99.90;;;;;;5013612;28;20391;-82
2022/05/07 03:56:01;;;;;;;10.30;9.40;;;11.00;99.90;;;;;;5013515;28;20450;-82
2022/05/07 03:58:27;;;;;;;9.77;8.93;;;10.90;99.90;;;;;;5013530;28;20753;-82
2022/05/07 04:00:54;;;;;;;9.93;9.03;;;10.90;99.90;;;;;;5013434;28;20401;-82
2022/05/07 04:03:20;;;;;;;9.82;9.00;;;11.20;99.90;;;;;;5013352;28;20397;-82
2022/05/07 04:05:46;;;;;;;9.67;8.87;;;10.90;99.90;;;;;;5013552;28;20796;-82
2022/05/07 04:08:12;;;;;;;9.63;8.82;;;11.00;99.90;;;;;;5013246;28;20393;-82
2022/05/07 04:10:38;;;;;;;8.82;8.20;;;10.80;99.90;;;;;;5013531;28;20766;-82
2022/05/07 04:13:03;;;;;;;8.55;7.95;;;10.90;99.90;;;;;;5013215;28;20385;-82
2022/05/07 04:15:29;;;;;;;8.27;7.57;;;11.00;99.90;;;;;;5013054;28;20936;-82
2022/05/07 04:17:55;;;;;;;8.40;7.60;;;11.00;99.90;;;;;;5013124;28;20855;-82
2022/05/07 04:20:20;;;;;;;8.53;7.73;;;11.00;99.90;;;;;;5012981;28;20454;-82
2022/05/07 04:22:46;;;;;;;8.07;7.47;;;10.90;99.90;;;;;;5010674;28;20397;-82
2022/05/07 04:25:13;;;;;;;8.50;7.80;;;10.80;99.90;;;;;;5012682;28;20388;-82
2022/05/07 04:27:39;;;;;;;8.27;7.57;;;11.40;99.90;;;;;;5012880;28;20416;-82
2022/05/07 04:30:05;;;;;;;8.30;7.60;;;10.90;99.90;;;;;;5013140;28;20889;-82
2022/05/07 04:32:31;;;;;;;8.07;7.37;;;10.80;99.90;;;;;;5012869;28;20392;-82
2022/05/07 04:34:57;;;;;;;8.07;7.45;;;10.80;99.90;;;;;;5012452;28;20384;-82
2022/05/07 04:37:23;;;;;;;8.03;7.23;;;11.00;99.90;;;;;;5012324;28;20389;-82
2022/05/07 04:39:49;;;;;;;6.90;6.40;;;10.90;99.90;;;;;;5009541;28;20423;-82
2022/05/07 04:42:14;;;;;;;7.60;7.00;;;11.00;99.90;;;;;;5012732;28;20413;-82
2022/05/07 04:44:40;;;;;;;7.37;6.87;;;11.10;99.90;;;;;;5012658;28;20388;-82
2022/05/07 04:47:06;;;;;;;7.20;6.60;;;11.00;99.90;;;;;;5012716;28;20436;-82
2022/05/07 04:49:32;;;;;;;7.07;6.47;;;11.00;99.90;;;;;;5012032;28;20416;-82
2022/05/07 04:51:58;;;;;;;7.22;6.40;;;11.00;99.90;;;;;;5012719;28;20387;-82
2022/05/07 04:54:24;;;;;;;6.68;5.97;;;11.20;99.90;;;;;;5012499;28;20488;-82
2022/05/07 04:56:51;;;;;;;6.37;5.93;;;11.30;99.90;;;;;;5012791;28;20404;-82
2022/05/07 04:59:18;;;;;;;6.32;5.82;;;11.30;99.90;;;;;;5012514;28;20417;-82
2022/05/07 05:01:45;;;;;;;6.93;6.37;;;11.30;99.90;;;;;;5012439;28;20837;-82
2022/05/07 05:04:11;;;;;;;6.22;5.72;;;11.30;99.90;;;;;;5012454;28;20912;-82
2022/05/07 05:06:37;;;;;;;6.60;6.10;;;11.40;99.90;;;;;;5012374;28;20400;-83
2022/05/07 05:09:07;;;;;;;7.00;6.40;;;11.60;99.90;;;;;;5012681;28;20393;-82
2022/05/07 05:11:34;;;;;;;6.93;6.32;;;11.40;99.90;;;;;;5012539;28;20503;-82
2022/05/07 05:13:59;;;;;;;6.57;5.87;;;11.40;99.90;;;;;;5012230;28;20416;-82
2022/05/07 05:16:25;;;;;;;6.35;5.85;;;11.60;99.90;;;;;;5011380;28;20397;-82
2022/05/07 05:18:51;;;;;;;7.45;6.78;;;11.60;99.90;;;;;;5012327;28;20400;-83
2022/05/07 05:21:17;;;;;;;7.55;6.85;;;11.60;99.90;;;;;;5009371;28;20408;-82
2022/05/07 05:23:42;;;;;;;6.57;6.05;;;11.40;99.90;;;;;;5012183;28;20397;-82
2022/05/07 05:26:08;;;;;;;6.88;6.28;;;11.40;99.90;;;;;;5012246;28;20393;-83
2022/05/07 05:28:37;;;;;;;6.63;6.10;;;11.50;99.90;;;;;;5012633;28;20377;-82
2022/05/07 05:31:03;;;;;;;6.97;6.40;;;11.50;99.90;;;;;;5010699;28;20750;-83
2022/05/07 05:33:29;;;;;;;6.70;6.10;;;11.60;99.90;;;;;;5007543;28;20404;-82
2022/05/07 05:35:54;;;;;;;6.17;5.67;;;11.60;99.90;;;;;;5008406;28;20754;-82
2022/05/07 05:38:21;;;;;;;6.50;6.00;;;11.70;99.90;;;;;;4992630;28;20398;-82
2022/05/07 05:40:46;;;;;;;7.13;6.40;;;11.80;99.90;;;;;;5001237;28;20413;-82
2022/05/07 05:43:12;;;;;;;6.47;5.87;;;11.70;99.90;;;;;;4997282;28;20399;-82
2022/05/07 05:45:37;;;;;;;6.55;5.95;;;11.50;99.90;;;;;;5005350;28;20434;-82
2022/05/07 05:48:04;;;;;;;6.50;5.93;;;11.70;99.90;;;;;;4996661;28;20437;-82
2022/05/07 05:50:31;;;;;;;7.00;6.03;;;11.80;99.90;;;;;;4991938;28;20394;-82
2022/05/07 05:52:57;;;;;;;7.78;7.00;;;11.80;99.90;;;;;;4994494;28;20971;-82
2022/05/07 05:55:23;;;;;;;7.15;6.57;;;11.80;99.90;;;;;;4992428;28;20410;-82
2022/05/07 05:57:49;;;;;;;7.40;6.88;;;11.70;99.90;;;;;;4992062;28;20494;-82
2022/05/07 06:00:16;;;;;;;6.70;6.20;;;12.20;99.90;;;;;;4991817;28;20430;-82
2022/05/07 06:02:45;;;;;;;6.55;6.05;;;11.90;99.90;;;;;;4997022;28;20411;-82
2022/05/07 06:05:12;;;;;;;7.13;6.53;;;12.10;99.90;;;;;;4999175;28;20381;-82
2022/05/07 06:07:37;;;;;;;6.97;6.28;;;11.90;99.90;;;;;;4996722;28;20429;-83
2022/05/07 06:10:04;;;;;;;6.55;6.05;;;11.80;99.90;;;;;;5004406;28;20435;-83
2022/05/07 06:12:30;;;;;;;7.18;6.57;;;11.90;99.90;;;;;;5014563;28;20401;-83
2022/05/07 06:14:56;;;;;;;6.63;6.13;;;11.80;99.90;;;;;;5015400;28;20396;-82
2022/05/07 06:17:22;;;;;;;6.70;6.20;;;12.00;99.90;;;;;;5015318;28;20529;-83
2022/05/07 06:19:48;;;;;;;6.65;6.15;;;11.90;99.90;;;;;;5015562;28;20404;-83
2022/05/07 06:22:13;;;;;;;6.50;6.00;;;12.00;99.90;;;;;;5015322;28;20727;-83
2022/05/07 06:27:31;;;;;;;6.53;6.03;;;12.00;99.90;;;;;;5015720;28;20431;-83
2022/05/07 06:30:01;;;;;;;5.95;5.55;;;12.10;99.90;;;;;;5015072;28;20392;-83
2022/05/07 06:32:36;;;;;;;6.70;6.15;;;12.10;99.90;;;;;;5009185;28;20416;-81
2022/05/07 06:35:06;;;;;;;8.32;6.85;;;12.00;99.90;;;;;;5010785;28;20381;-82
2022/05/07 06:37:34;;;;;;;7.55;6.72;;;12.00;99.90;;;;;;5002733;28;20393;-82
2022/05/07 06:40:00;;;;;;;6.45;6.03;;;12.00;99.90;;;;;;5015596;28;20397;-82
2022/05/07 06:42:26;;;;;;;5.65;5.05;;;12.10;99.90;;;;;;5013863;28;20492;-83
2022/05/07 06:44:52;;;;;;;6.50;6.00;;;12.20;99.90;;;;;;5013570;28;20464;-82
2022/05/07 06:47:17;;;;;;;6.45;6.00;;;12.10;99.90;;;;;;5014246;28;20431;-82
2022/05/07 06:49:43;;;;;;;6.72;6.22;;;12.10;99.90;;;;;;5013565;28;20399;-82
2022/05/07 06:52:09;;;;;;;6.05;5.53;;;12.20;99.90;;;;;;5013661;28;20443;-82
2022/05/07 06:54:35;;;;;;;6.05;5.55;;;12.30;99.90;;;;;;5014502;28;20438;-82
2022/05/07 06:57:03;;;;;;;6.80;6.28;;;12.20;99.90;;;;;;5014929;28;20401;-82
2022/05/07 06:59:31;;;;;;;6.03;5.53;;;12.20;99.90;;;;;;5014241;28;20568;-82
2022/05/07 07:01:57;;;;;;;5.60;5.20;;;12.40;99.90;;;;;;5014492;28;20409;-82
2022/05/07 07:04:26;;;;;;;5.63;5.22;;;12.60;99.90;;;;;;5014558;28;20390;-82
2022/05/07 07:06:52;;;;;;;6.13;5.63;;;12.80;99.90;;;;;;5014393;28;20513;-82
2022/05/07 07:09:18;;;;;;;6.82;6.22;;;12.70;99.90;;;;;;5014567;28;20413;-82
2022/05/07 07:11:44;;;;;;;6.85;6.25;;;12.50;99.90;;;;;;5013878;28;20759;-82
2022/05/07 07:14:10;;;;;;;7.47;6.87;;;12.50;99.90;;;;;;5014394;28;20476;-82
2022/05/07 07:16:36;;;;;;;6.63;6.13;;;12.40;99.90;;;;;;5013025;28;20409;-82
2022/05/07 07:19:02;;;;;;;6.40;5.80;;;12.80;99.90;;;;;;5011348;28;20377;-82
2022/05/07 07:21:28;;;;;;;6.90;6.30;;;12.50;99.90;;;;;;5013940;28;20413;-82
2022/05/07 07:23:53;;;;;;;6.83;6.13;;;12.50;99.90;;;;;;5014083;28;20381;-83
2022/05/07 07:26:19;;;;;;;7.17;6.50;;;12.70;99.90;;;;;;5014053;28;20413;-82
2022/05/07 07:28:45;;;;;;;6.73;6.23;;;12.80;99.90;;;;;;5014000;28;20388;-83
2022/05/07 07:31:11;;;;;;;7.20;6.50;;;12.80;99.90;;;;;;5014080;28;20392;-82
2022/05/07 07:33:38;;;;;;;6.10;5.60;;;12.70;99.90;;;;;;5013716;28;20385;-84
2022/05/07 07:36:07;;;;;;;6.60;6.00;;;12.80;99.90;;;;;;5013773;28;20901;-84
2022/05/07 07:38:32;;;;;;;6.70;6.10;;;12.80;99.90;;;;;;5014030;28;20472;-83
2022/05/07 07:40:58;;;;;;;6.15;5.63;;;12.70;99.90;;;;;;5013948;28;20417;-84
2022/05/07 07:43:24;;;;;;;6.90;6.30;;;12.90;99.90;;;;;;5013518;28;20443;-83
2022/05/07 07:48:34;;;;;;;6.50;6.10;;;12.90;99.90;;;;;;5011427;28;20751;-82
2022/05/07 07:50:59;;;;;;;7.10;6.53;;;12.80;99.90;;;;;;5013654;28;20397;-82
2022/05/07 07:53:25;;;;;;;7.17;6.57;;;12.80;99.90;;;;;;5010040;28;20405;-82
2022/05/07 07:55:51;;;;;;;7.33;6.73;;;12.90;99.90;;;;;;5013313;28;20401;-82
2022/05/07 07:58:17;;;;;;;7.28;6.78;;;12.90;99.90;;;;;;5013496;28;20403;-83
2022/05/07 08:00:46;;;;;;;7.40;6.70;;;12.90;99.90;;;;;;5013466;28;20433;-82
2022/05/07 08:03:19;;;;;;;8.20;7.38;;;12.90;99.90;;;;;;5013196;28;20385;-82
2022/05/07 08:05:48;;;;;;;8.77;7.97;;;12.90;99.90;;;;;;5012540;28;20395;-82
2022/05/07 08:13:46;;;;;;;8.75;8.07;;;12.90;99.90;;;;;;5013326;28;20388;-83
2022/05/07 08:16:12;;;;;;;9.00;8.40;;;13.00;99.90;;;;;;5013168;28;20389;-83
2022/05/07 08:18:39;;;;;;;9.50;8.67;;;13.00;99.90;;;;;;5013035;28;20417;-83
2022/05/07 08:21:07;;;;;;;9.63;8.83;;;13.00;99.90;;;;;;5013105;28;20412;-83
2022/05/07 08:23:32;;;;;;;10.27;9.38;;;13.20;99.90;;;;;;5012015;28;20384;-84
2022/05/07 08:25:58;;;;;;;10.68;9.82;;;13.20;99.90;;;;;;5012843;28;20443;-83
2022/05/07 08:28:24;;;;;;;9.88;8.90;;;13.20;99.90;;;;;;5013013;28;20792;-83
2022/05/07 08:30:53;;;;;;;10.18;9.27;;;13.50;99.90;;;;;;5009718;28;20888;-84
2022/05/07 08:33:19;;;;;;;10.48;9.68;;;13.50;99.90;;;;;;5012455;28;20403;-83
2022/05/07 08:35:45;;;;;;;11.03;10.23;;;13.60;99.90;;;;;;5012598;28;20397;-83
2022/05/07 08:38:11;;;;;;;11.95;10.95;;;13.50;99.90;;;;;;5011633;28;20866;-84
2022/05/07 08:40:40;;;;;;;10.70;9.80;;;13.60;99.90;;;;;;5011158;28;20421;-84
2022/05/07 08:43:06;;;;;;;12.27;11.27;;;13.70;99.90;;;;;;5012360;28;20850;-83
2022/05/07 08:45:32;;;;;;;13.20;12.10;;;13.80;99.90;;;;;;5012521;28;20476;-84
2022/05/07 08:47:59;;;;;;;11.48;10.57;;;13.70;99.90;;;;;;5012279;28;20397;-83
2022/05/07 08:50:26;;;;;;;12.50;11.35;;;13.70;99.90;;;;;;5012818;28;20397;-84
2022/05/07 08:52:53;;;;;;;12.73;11.43;;;13.80;99.90;;;;;;5012741;28;20393;-84
2022/05/07 08:55:20;;;;;;;12.38;11.40;;;13.90;99.90;;;;;;5012470;28;20483;-85
2022/05/07 08:57:50;;;;;;;11.75;10.77;;;14.00;99.90;;;;;;5012732;28;20416;-84
2022/05/07 09:00:19;;;;;;;12.43;11.43;;;14.20;99.90;;;;;;5012237;28;20889;-83
2022/05/07 09:02:48;;;;;;;12.95;11.90;;;14.40;99.90;;;;;;5012648;28;20429;-83
2022/05/07 09:05:20;;;;;;;11.85;10.82;;;14.30;99.90;;;;;;5011130;28;20764;-89
2022/05/07 09:07:57;;;;;;;12.50;11.50;;;14.30;99.90;;;;;;5011625;28;20435;-85
2022/05/07 09:10:31;;;;;;;12.73;11.65;;;14.40;99.90;;;;;;5012391;28;20401;-86
2022/05/07 09:13:11;;;;;;;12.90;11.77;;;14.40;99.90;;;;;;5012466;28;20387;-87
2022/05/07 09:15:47;;;;;;;12.00;11.00;;;14.50;99.90;;;;;;5012279;28;20423;-86
2022/05/07 09:18:14;;;;;;;11.45;10.60;;;14.60;99.90;;;;;;5012512;28;20479;-86
2022/05/07 09:20:40;;;;;;;11.93;10.95;;;14.80;99.90;;;;;;5009056;28;20412;-86
2022/05/07 09:23:06;;;;;;;12.23;11.23;;;14.80;99.90;;;;;;5012030;28;20396;-85
2022/05/07 09:25:32;;;;;;;12.65;11.65;;;14.90;99.90;;;;;;5012199;28;20412;-87
2022/05/07 09:27:58;;;;;;;15.45;14.05;;;15.10;99.90;;;;;;5012667;28;20410;-87
2022/05/07 09:30:26;;;;;;;14.32;13.02;;;15.40;99.90;;;;;;5012401;28;20535;-86
2022/05/07 09:32:54;;;;;;;14.15;12.90;;;15.60;99.90;;;;;;5012353;28;20874;-85
2022/05/07 09:38:08;;;;;;;14.55;13.35;;;15.90;99.90;;;;;;5016448;28;20395;-87
2022/05/07 09:40:38;;;;;;;14.32;13.20;;;15.90;99.90;;;;;;5016014;28;20852;-87
2022/05/07 09:43:05;;;;;;;14.82;13.60;;;16.10;99.90;;;;;;5016282;28;20393;-87
2022/05/07 09:45:31;;;;;;;14.52;13.23;;;16.20;99.90;;;;;;5016000;28;20480;-87
2022/05/07 09:48:00;;;;;;;14.38;13.15;;;16.30;99.90;;;;;;5015892;28;20468;-87
2022/05/07 09:58:42;;;;;;;15.15;13.68;;;16.50;99.90;;;;;;5016171;28;20423;-88
2022/05/07 10:01:31;;;;;;;14.73;13.43;;;16.50;99.90;;;;;;5030943;28;20509;-87
2022/05/07 10:04:08;;;;;;;14.70;13.50;;;16.60;99.90;;;;;;5015747;28;20387;-86
2022/05/07 10:07:02;;;;;;;15.38;13.88;;;16.50;99.90;;;;;;5015747;28;20391;-86
2022/05/07 10:09:49;;;;;;;16.42;11.80;;;16.30;99.90;;;;;;5015690;28;20376;-87
2022/05/07 10:12:20;;;;;;;11.27;10.37;;;16.40;99.90;;;;;;5015446;28;20878;-87
2022/05/07 10:14:45;;;;;;;11.18;10.23;;;16.60;99.90;;;;;;5015564;28;20403;-87
2022/05/07 10:17:13;;;;;;;12.70;11.50;;;16.60;99.90;;;;;;5015376;28;20949;-87
2022/05/07 10:19:41;;;;;;;11.20;10.30;;;16.60;99.90;;;;;;5015449;28;20385;-88
2022/05/07 10:22:24;;;;;;;14.63;11.60;;;16.80;99.90;;;;;;5015465;28;20458;-86
2022/05/07 10:25:10;;;;;;;10.75;9.85;;;16.70;99.90;;;;;;5015425;28;20493;-87
2022/05/07 10:27:38;;;;;;;10.40;9.48;;;16.70;99.90;;;;;;5015142;28;20463;-87
2022/05/07 10:30:08;;;;;;;9.40;8.50;;;16.80;99.90;;;;;;5015201;28;20393;-87
2022/05/07 10:32:53;;;;;;;9.75;8.52;;;16.80;99.90;;;;;;5015146;28;20807;-88
2022/05/07 10:35:37;;;;;;;8.98;8.07;;;16.90;99.90;;;;;;5013481;28;20392;-87
2022/05/07 10:38:08;;;;;;;9.88;8.95;;;17.00;99.90;;;;;;5017388;28;20373;-87
2022/05/07 10:40:33;;;;;;;9.80;8.90;;;17.00;99.90;;;;;;5017430;28;20404;-87
2022/05/07 10:42:59;;;;;;;8.90;8.15;;;17.00;99.90;;;;;;5015274;28;20387;-87
2022/05/07 10:45:27;;;;;;;9.32;7.75;;;17.10;99.90;;;;;;5014576;28;20523;-87
2022/05/07 10:47:54;;;;;;;9.02;8.00;;;17.00;99.90;;;;;;5013967;28;20381;-87
2022/05/07 10:50:22;;;;;;;9.00;8.30;;;17.10;99.90;;;;;;5014828;28;20400;-87
2022/05/07 10:52:56;;;;;;;9.00;8.15;;;17.20;99.90;;;;;;5014945;28;20393;-87
2022/05/07 10:55:26;;;;;;;9.15;8.45;;;17.30;99.90;;;;;;5029862;28;20407;-88
2022/05/07 10:57:55;;;;;;;9.52;8.57;;;17.30;99.90;;;;;;5016232;28;20801;-86
2022/05/07 11:00:22;;;;;;;9.60;8.80;;;17.30;99.90;;;;;;5015240;28;20743;-88
2022/05/07 11:02:49;;;;;;;9.13;8.43;;;17.30;99.90;;;;;;5014811;28;20420;-87
2022/05/07 11:05:16;;;;;;;8.75;7.85;;;17.30;99.90;;;;;;5014418;28;20381;-87
2022/05/07 11:07:43;;;;;;;8.68;7.88;;;17.50;99.90;;;;;;5014762;28;20434;-87
2022/05/07 11:10:10;;;;;;;9.52;8.63;;;17.60;99.90;;;;;;5014551;28;20531;-87
2022/05/07 11:12:36;;;;;;;8.60;7.80;;;17.70;99.90;;;;;;5013218;28;20427;-87
2022/05/07 11:15:08;;;;;;;9.25;8.48;;;17.60;99.90;;;;;;5026690;28;20893;-87
2022/05/07 11:17:41;;;;;;;10.63;8.52;;;17.70;99.90;;;;;;5014492;28;20393;-88
2022/05/07 11:20:07;;;;;;;9.80;9.00;;;17.80;99.90;;;;;;5012962;28;20393;-88
2022/05/07 11:22:33;;;;;;;9.18;8.48;;;17.80;99.90;;;;;;5014869;28;20393;-88
2022/05/07 11:25:03;;;;;;;9.77;8.97;;;17.90;99.90;;;;;;5014362;28;20897;-88
2022/05/07 11:27:32;;;;;;;9.50;8.50;;;18.00;99.90;;;;;;5014083;28;20870;-88
2022/05/07 11:30:03;;;;;;;8.90;8.00;;;18.30;99.90;;;;;;5014184;28;20389;-88
2022/05/07 11:32:39;;;;;;;8.57;7.88;;;18.50;99.90;;;;;;5014387;28;20464;-88
2022/05/07 11:35:06;;;;;;;9.52;8.52;;;18.60;99.90;;;;;;5013896;28;20862;-88
2022/05/07 11:37:39;;;;;;;8.85;8.05;;;18.60;99.90;;;;;;5014150;28;20385;-88
2022/05/07 11:40:05;;;;;;;7.82;7.13;;;18.70;99.90;;;;;;5013963;28;20421;-87
2022/05/07 11:42:43;;;;;;;7.60;7.00;;;18.70;99.90;;;;;;5013858;28;20816;-87
2022/05/07 11:45:25;;;;;;;7.80;7.00;;;18.80;99.90;;;;;;5013796;28;20872;-88
2022/05/07 11:48:14;;;;;;;7.30;6.80;;;18.90;99.90;;;;;;5013982;28;20384;-88
2022/05/07 11:51:00;;;;;;;7.30;6.70;;;19.10;99.90;;;;;;5010857;28;20388;-88
2022/05/07 11:53:30;;;;;;;8.15;7.55;;;19.30;99.90;;;;;;5013676;28;20912;-87
2022/05/07 11:56:09;;;;;;;8.20;7.45;;;19.30;99.90;;;;;;5013152;28;20427;-87
2022/05/07 11:58:47;;;;;;;7.80;6.93;;;19.30;99.90;;;;;;5013438;28;20403;-88
2022/05/07 12:01:23;;;;;;;7.15;6.45;;;19.50;99.90;;;;;;5013695;28;20514;-87
2022/05/07 12:03:49;;;;;;;7.07;6.57;;;19.70;99.90;;;;;;4999612;28;20391;-88
2022/05/07 12:06:32;;;;;;;8.15;7.40;;;19.70;99.90;;;;;;5012306;28;20410;-87
2022/05/07 12:08:58;;;;;;;7.65;7.05;;;19.60;99.90;;;;;;5013470;28;20377;-88
2022/05/07 12:11:24;;;;;;;7.22;6.63;;;19.60;99.90;;;;;;5013410;28;20896;-88
2022/05/07 12:13:50;;;;;;;7.55;6.95;;;19.60;99.90;;;;;;5013253;28;20397;-88
2022/05/07 12:19:00;;;;;;;7.03;6.53;;;19.90;99.90;;;;;;5013415;28;20936;-87
2022/05/07 12:29:50;;;;;;;6.93;6.32;;;20.00;99.90;;;;;;5013035;28;20384;-88
2022/05/07 12:32:18;;;;;;;5.57;5.10;;;20.20;99.90;;;;;;5013072;28;20384;-88
2022/05/07 12:34:43;;;;;;;6.25;4.97;;;20.30;99.90;;;;;;5013122;28;20395;-88
2022/05/07 12:37:09;;;;;;;6.28;4.95;;;20.30;99.90;;;;;;5009900;28;20798;-88
2022/05/07 12:39:34;;;;;;;5.60;5.20;;;20.40;99.90;;;;;;5012929;28;20389;-87
2022/05/07 12:42:11;;;;;;;5.37;4.87;;;20.30;99.90;;;;;;5013009;28;20564;-87
2022/05/07 12:44:37;;;;;;;5.85;5.40;;;20.20;99.90;;;;;;5012703;28;20385;-87
2022/05/07 12:47:05;;;;;;;5.70;5.20;;;20.40;99.90;;;;;;5012804;28;20388;-89
2022/05/07 12:49:30;;;;;;;5.93;5.50;;;20.60;99.90;;;;;;5012657;28;20388;-89
2022/05/07 12:51:56;;;;;;;6.32;5.72;;;20.50;99.90;;;;;;5012840;28;20384;-88
2022/05/07 12:54:22;;;;;;;7.07;5.60;;;20.50;99.90;;;;;;5012128;28;20392;-87
2022/05/07 12:56:48;;;;;;;5.77;5.23;;;20.50;99.90;;;;;;5012741;28;20420;-88
2022/05/07 12:59:14;;;;;;;5.85;5.35;;;20.50;99.90;;;;;;5012642;28;20534;-89
2022/05/07 13:01:40;;;;;;;5.30;4.90;;;20.20;99.90;;;;;;5012532;28;20478;-88
2022/05/07 13:04:06;;;;;;;5.87;5.37;;;20.40;99.90;;;;;;5012503;28;20442;-87
2022/05/07 13:06:32;;;;;;;6.03;5.43;;;20.60;99.90;;;;;;5012595;28;20474;-87
2022/05/07 13:09:00;;;;;;;5.30;4.90;;;20.60;99.90;;;;;;5012835;28;20486;-89
2022/05/07 13:11:26;;;;;;;7.38;5.22;;;20.60;99.90;;;;;;5012130;28;20475;-88
2022/05/07 13:13:52;;;;;;;5.88;5.38;;;20.50;99.90;;;;;;5009376;28;20385;-88
2022/05/07 13:16:18;;;;;;;5.45;5.05;;;20.40;99.90;;;;;;5012606;28;20396;-88
2022/05/07 13:18:44;;;;;;;6.18;5.20;;;20.40;99.90;;;;;;5012407;28;20455;-88
2022/05/07 13:21:13;;;;;;;5.72;5.20;;;20.40;99.90;;;;;;5012662;28;20417;-88
2022/05/07 13:23:39;;;;;;;5.45;4.97;;;20.40;99.90;;;;;;5012235;28;20385;-87
2022/05/07 13:26:05;;;;;;;7.47;5.82;;;20.50;99.90;;;;;;5012417;28;20385;-87